Policoro Saline Flying Field

IT-0447 · Basilicate, Włochy

Historia METAR IT-0447 · Policoro Saline Flying Field

Poniżej widzisz METAR-y z ostatnich kilku dni. Wybierz rok, aby przeglądać starsze METAR-y, począwszy od roku 2007.

22 lipca 2024

Czas Kod Pogoda Temp. Widoczność Sufit Wiatr METAR/SPECI
20:55
V
21 °C 10 km+ - 360° 360° 9 kt METAR LIBV 221855Z 36009KT 9999 -RA FEW030 FEW035CB 21/18 Q1012 RETS RMK OVC BKN080 VIS MIN 9999 WIND THR32 36011KT WIND THR14 01007KT BLU
20:55
V
21 °C 10 km+ - 360° 360° 9 kt METAR LIBV 221855Z 36009KT 9999 -RA FEW030 FEW035CB 21/18 Q1012 RETS
19:55
M
22 °C 7 km - 010° 010° 11 kt METAR LIBV 221755Z 01011KT 7000 -TSRA FEW030CB 22/18 Q1014
18:55
M
21 °C 6 km 5.000 ft 300° 300° 16 kt METAR LIBV 221655Z 30016KT 6000 TSRA SCT030CB BKN050 21/17 Q1013
18:19
V
27 °C 9 km - 310° 310° 18 - 29 kt METAR LIBV 221619Z 31018G29KT 9000 TS FEW030CB 27/14 Q1012 RMK OVC SCT060 BKN140 VIS MIN 9000 WIND THR32 32018G31KT WIND THR14 31019G32KT BLU
17:55
V
31 °C 10 km+ - 030° 030° 9 kt METAR LIBV 221555Z 03009KT 9999 FEW050 31/14 Q1011
16:55
V
33 °C 10 km+ - 030° 030° 12 kt METAR LIBV 221455Z 03012KT 9999 FEW050 33/14 Q1011
15:55
V
31 °C 10 km+ - 010° 010° 11 kt METAR LIBV 221355Z 01011KT 9999 FEW050 31/16 Q1011
14:55
V
33 °C 10 km+ - 010° 010° 10 kt METAR LIBV 221255Z 01010KT 9999 FEW050 33/15 Q1011
13:55
V
31 °C 10 km+ - 020° 020° 14 kt METAR LIBV 221155Z 02014KT 9999 FEW050 31/17 Q1011
12:55
V
35 °C 10 km+ - 280° 280° 5 kt METAR LIBV 221055Z 28005KT 9999 FEW050 35/14 Q1011
11:55
V
34 °C 10 km+ - 200° 200° 6 kt METAR LIBV 220955Z 20006KT CAVOK 34/13 Q1011
10:55
V
33 °C 10 km+ - Var Var 3 kt METAR LIBV 220855Z VRB03KT CAVOK 33/14 Q1012
09:55
V
31 °C 10 km+ - 150° 150° 2 kt METAR LIBV 220755Z 15002KT CAVOK 31/15 Q1012
08:55
V
29 °C 10 km+ - 170° 170° 5 kt METAR LIBV 220655Z 17005KT CAVOK 29/18 Q1012
07:55
V
26 °C 10 km+ - 160° 160° 4 kt METAR LIBV 220555Z 16004KT CAVOK 26/20 Q1012
06:55
V
21 °C 10 km+ - Var Var 1 kt METAR LIBV 220455Z VRB01KT CAVOK 21/17 Q1011
05:55
V
20 °C 10 km+ - 280° 280° 2 kt METAR LIBV 220355Z 28002KT CAVOK 20/15 Q1011
04:55
V
21 °C 10 km+ - Var Var 1 kt METAR LIBV 220255Z VRB01KT CAVOK 21/16 Q1011
03:55
V
22 °C 10 km+ - 010° 010° 1 kt METAR LIBV 220155Z 01001KT CAVOK 22/16 Q1011
02:55
V
21 °C 10 km+ - 290° 290° 2 kt METAR LIBV 220055Z 29002KT CAVOK 21/16 Q1011
01:55
V
23 °C 10 km+ - 360° 360° 0 kt METAR LIBV 212355Z 00000KT CAVOK 23/17 Q1012
00:55
V
24 °C 10 km+ - Var Var 2 kt METAR LIBV 212255Z VRB02KT CAVOK 24/18 Q1012

21 lipca 2024

Czas Kod Pogoda Temp. Widoczność Sufit Wiatr METAR/SPECI
23:55
V
25 °C 10 km+ - 180° 180° 2 kt METAR LIBV 212155Z 18002KT CAVOK 25/18 Q1012
22:55
V
26 °C 10 km+ - Var Var 1 kt METAR LIBV 212055Z VRB01KT CAVOK 26/19 Q1011
21:55
V
27 °C 10 km+ - 230° 230° 10 kt METAR LIBV 211955Z 23010KT CAVOK 27/21 Q1012
20:55
V
28 °C 10 km+ - 220° 220° 4 kt METAR LIBV 211855Z 22004KT CAVOK 28/21 Q1011
19:55
V
29 °C 10 km+ - 230° 230° 5 kt METAR LIBV 211755Z 23005KT CAVOK 29/21 Q1011
18:55
V
29 °C 10 km+ - 140° 140° 3 kt METAR LIBV 211655Z 14003KT 9999 FEW033 29/22 Q1010
17:55
V
29 °C 10 km+ - 180° 180° 5 kt METAR LIBV 211555Z 18005KT 9999 SCT032 FEW035CB 29/23 Q1011
16:55
V
30 °C 10 km+ - 110° 110° 9 kt METAR LIBV 211455Z 11009KT 9999 SCT033 FEW035CB 30/23 Q1010
15:55
V
31 °C 10 km+ - 050° 050° 8 kt METAR LIBV 211355Z 05008KT 9999 SCT032 FEW035TCU 31/22 Q1011 RMK BKN VIS MIN 9999 WIND THR32 09008KT WIND THR14 05009KT BLU
14:55
V
32 °C 10 km+ - 010° 010° 11 kt METAR LIBV 211255Z 01011KT 9999 SCT032 FEW035TCU 32/22 Q1010
13:55
V
33 °C 10 km+ - 010° 010° 11 kt METAR LIBV 211155Z 01011KT 9999 SCT033 33/21 Q1010
12:55
V
33 °C 10 km+ - 060° 060° 6 kt METAR LIBV 211055Z 06006KT 9999 SCT030 SCT050 33/18 Q1010
11:55
M
32 °C 10 km+ 2.700 ft 020° 020° 4 kt METAR LIBV 210955Z 02004KT 9999 BKN027 32/20 Q1011
10:55
V
30 °C 10 km+ - 040° 040° 4 kt METAR LIBV 210855Z 04004KT 9999 SCT025 30/20 Q1011 RMK SCT VIS MIN 9999 WIND THR32 04003KT WIND THR14 34004KT BLU
09:55
V
29 °C 9 km - 030° 030° 4 kt METAR LIBV 210755Z 03004KT 9000 FEW013 SCT025 29/21 Q1011
08:55
V
27 °C 10 km+ - 020° 020° 9 kt METAR LIBV 210655Z 02009KT 9999 SCT012 27/23 Q1011
07:55
M
26 °C 7 km - 360° 360° 6 kt METAR LIBV 210555Z 36006KT 7000 FEW005 SCT010 26/24 Q1011
07:08
M
25 °C 5 km - 360° 360° 6 kt METAR LIBV 210508Z 36006KT 5000 BR SCT005 SCT010 25/23 Q1011 RMK BKN VIS MIN 5000 WIND THR32 02007KT WIND THR14 36006KT WHT
06:55
I
24 °C 4 km - 360° 360° 6 kt METAR LIBV 210455Z 36006KT 4000 BR SCT005 SCT010 24/23 Q1011
05:55
I
24 °C 2,8 km - 360° 360° 7 kt METAR LIBV 210355Z 36007KT 2800 BR SCT005 SCT012 24/23 Q1010
04:55
I
24 °C 3,8 km - 340° 340° 6 kt METAR LIBV 210255Z 34006KT 3800 BR SCT004 SCT012 24/23 Q1010
03:55
I
24 °C 4 km - 340° 340° 4 kt METAR LIBV 210155Z 34004KT 4000 BR SCT005 24/23 Q1010
02:55
I
25 °C 4 km - 350° 350° 5 kt METAR LIBV 210055Z 35005KT 4000 BR SCT003 SCT007 25/23 Q1010 RMK BKN VIS MIN 4000 WIND THR32 36005KT WIND THR14 33005KT GRN
01:55
I
25 °C 4 km - 350° 350° 5 kt METAR LIBV 202355Z 35005KT 4000 BR SCT005 25/23 Q1010
00:55
I
25 °C 4 km - 010° 010° 3 kt METAR LIBV 202255Z 01003KT 4000 BR SCT006 SCT012 25/22 Q1010
00:37
M
25 °C 6 km - 010° 010° 4 kt METAR LIBV 202237Z 01004KT 6000 SCT007 25/22 Q1010 RMK BKN VIS MIN 5000 WIND THR32 01005KT WIND THR14 02004KT WHT

20 lipca 2024

Czas Kod Pogoda Temp. Widoczność Sufit Wiatr METAR/SPECI
23:55
V
25 °C 10 km+ - 010° 010° 4 kt METAR LIBV 202155Z 01004KT 9999 FEW010 25/22 Q1010
22:55
V
26 °C 10 km+ - 360° 360° 5 kt METAR LIBV 202055Z 36005KT 9999 FEW010 26/23 Q1010
21:55
V
26 °C 10 km+ - 350° 350° 7 kt METAR LIBV 201955Z 35007KT 9999 FEW010 26/23 Q1010
20:55
V
28 °C 10 km+ - 350° 350° 6 kt METAR LIBV 201855Z 35006KT CAVOK 28/19 Q1010
19:55
V
31 °C 10 km+ - 030° 030° 7 kt METAR LIBV 201755Z 03007KT CAVOK 31/16 Q1009
18:55
V
32 °C 10 km+ - 040° 040° 4 kt METAR LIBV 201655Z 04004KT CAVOK 32/17 Q1009
17:55
V
32 °C 10 km+ - 360° 360° 7 kt METAR LIBV 201555Z 36007KT CAVOK 32/18 Q1009
16:55
V
33 °C 10 km+ - 340° 340° 3 kt METAR LIBV 201455Z 34003KT 9999 SCT032 FEW035CB 33/16 Q1009
15:55
V
35 °C 10 km+ - 160° 160° 14 kt METAR LIBV 201355Z 16014KT 9999 SCT030 FEW035CB 35/12 Q1009
14:55
V
36 °C 10 km+ - 150° 150° 14 kt METAR LIBV 201255Z 15014KT 9999 SCT032 36/13 Q1009
13:55
V
36 °C 10 km+ - 160° 160° 12 kt METAR LIBV 201155Z 16012KT 9999 SCT032 36/13 Q1009 RMK SCT VIS MIN 9999 WIND THR32 17011KT WIND THR14 17013KT BLU
12:55
V
36 °C 10 km+ - 170° 170° 12 kt METAR LIBV 201055Z 17012KT 9999 SCT032 36/14 Q1010
11:55
V
35 °C 10 km+ - 220° 220° 6 kt METAR LIBV 200955Z 22006KT 130V280 9999 FEW030 35/14 Q1010
10:55
V
34 °C 10 km+ - 150° 150° 4 kt METAR LIBV 200855Z 15004KT CAVOK 34/14 Q1011
09:55
V
33 °C 10 km+ - 170° 170° 4 kt METAR LIBV 200755Z 17004KT CAVOK 33/15 Q1011
08:55
V
32 °C 10 km+ - 160° 160° 2 kt METAR LIBV 200655Z 16002KT CAVOK 32/15 Q1011
07:55
V
28 °C 10 km+ - Var Var 1 kt METAR LIBV 200555Z VRB01KT CAVOK 28/15 Q1011
Zgłoś zmianę